Comanche — V7QM7 — position and weather

sailwx.info

Track history (hours):
 
Tides and Currents Weather Stations Pressure Air Temp Water Temp Dewpoint Dewpoint Depression Visibility Wind Speed Wind Dir Waves Ship Positions

Comanche

Last reported at 2018-Jun-20 09:17 UTC. Time now 2018-Jun-24 10:52 UTC.
Position S 34°04' E 017°22'.

Length 292 m; draft 10.4 m.

Type: Cargo ship. MMSI: 538006933.

Date/timePositionNaut miles runAvg speedWind from/ knotsBaromVisibWave heightAir tempDewpointWater temp
2018-Jun-20 09:17S 34°04' E 017°22'812.6
2018-Jun-20 08:40S 34°07' E 017°31'212.7
2018-Jun-20 08:30S 34°08' E 017°33'612.5
2018-Jun-20 08:00S 34°11' E 017°40'612.6
2018-Jun-20 07:30S 34°14' E 017°47'612.4
2018-Jun-20 07:01S 34°16' E 017°53'612.0
2018-Jun-20 06:29S 34°19' E 017°60'611.7
2018-Jun-20 06:01S 34°22' E 018°06'611.8
2018-Jun-20 05:30S 34°24' E 018°13'611.9
2018-Jun-20 04:59S 34°27' E 018°19'611.6
2018-Jun-20 04:30S 34°29' E 018°25'611.4
2018-Jun-20 04:00S 34°32' E 018°32'611.4
2018-Jun-20 03:30S 34°34' E 018°38'611.6
2018-Jun-20 03:00S 34°37' E 018°44'611.3
2018-Jun-20 02:30S 34°40' E 018°50'511.3
2018-Jun-20 02:01S 34°42' E 018°56'611.1
2018-Jun-20 01:29S 34°45' E 019°03'  
2018-Jun-17 15:28S 30°10' E 030°59'714.7
2018-Jun-17 15:00S 30°06' E 031°05'714.2
2018-Jun-17 14:31S 30°01' E 031°12'713.3
2018-Jun-17 14:01S 29°58' E 031°18'713.6
2018-Jun-17 13:30S 29°54' E 031°24'713.2
2018-Jun-17 13:00S 29°52' E 031°32'713.2
2018-Jun-17 12:31S 29°50' E 031°39'  
Track history (hours):
 
Tides and Currents Weather Stations Pressure Air Temp Water Temp Dewpoint Dewpoint Depression Visibility Wind Speed Wind Dir Waves Ship Positions

Comanche

Last reported at 2018-Jun-20 09:17 UTC. Time now 2018-Jun-24 10:52 UTC.
Position S 34°04' E 017°22'.

Length 292 m; draft 10.4 m.

Type: Cargo ship. MMSI: 538006933.

Date/timePositionNaut miles runAvg speedWind from/ knotsBaromVisibWave heightAir tempDewpointWater temp
2018-Jun-20 09:17S 34°04' E 017°22'812.6
2018-Jun-20 08:40S 34°07' E 017°31'212.7
2018-Jun-20 08:30S 34°08' E 017°33'612.5
2018-Jun-20 08:00S 34°11' E 017°40'612.6
2018-Jun-20 07:30S 34°14' E 017°47'612.4
2018-Jun-20 07:01S 34°16' E 017°53'612.0
2018-Jun-20 06:29S 34°19' E 017°60'611.7
2018-Jun-20 06:01S 34°22' E 018°06'611.8
2018-Jun-20 05:30S 34°24' E 018°13'611.9
2018-Jun-20 04:59S 34°27' E 018°19'611.6
2018-Jun-20 04:30S 34°29' E 018°25'611.4
2018-Jun-20 04:00S 34°32' E 018°32'611.4
2018-Jun-20 03:30S 34°34' E 018°38'611.6
2018-Jun-20 03:00S 34°37' E 018°44'611.3
2018-Jun-20 02:30S 34°40' E 018°50'511.3
2018-Jun-20 02:01S 34°42' E 018°56'611.1
2018-Jun-20 01:29S 34°45' E 019°03'  
2018-Jun-17 15:28S 30°10' E 030°59'714.7
2018-Jun-17 15:00S 30°06' E 031°05'714.2
2018-Jun-17 14:31S 30°01' E 031°12'713.3
2018-Jun-17 14:01S 29°58' E 031°18'713.6
2018-Jun-17 13:30S 29°54' E 031°24'713.2
2018-Jun-17 13:00S 29°52' E 031°32'713.2
2018-Jun-17 12:31S 29°50' E 031°39'  

Dump ship's entire track history